Time;durP1;ratioP1;P1;durP2;ratioP2;P2;SDS_P1;SDS_P2;PMS_P1;PMS_P2;Temp;Humidity;BMP_temperature;BMP_pressure;BME280_temperature;BME280_humidity;BME280_pressure;Samples;Min_cycle;Max_cycle;Signal;HPM_P1;HPM_P2
2023/01/14 00:00:47;;;;;;;5.07;1.13;;;;;;;;;;6231272;22;20020;-90
2023/01/14 00:03:16;;;;;;;8.18;1.83;;;;;;;;;;6270626;22;20585;-90
2023/01/14 00:05:53;;;;;;;10.60;1.60;;;;;;;;;;6282786;22;20047;-90
2023/01/14 00:08:28;;;;;;;9.05;1.40;;;;;;;;;;6232155;22;20077;-90
2023/01/14 00:11:03;;;;;;;8.38;1.92;;;;;;;;;;6282632;22;20038;-90
2023/01/14 00:13:38;;;;;;;7.53;1.50;;;;;;;;;;6255522;22;20367;-90
2023/01/14 00:16:10;;;;;;;5.63;1.40;;;;;;;;;;6255897;22;20023;-89
2023/01/14 00:18:37;;;;;;;10.02;1.20;;;;;;;;;;6281742;22;20040;-90
2023/01/14 00:21:10;;;;;;;6.65;1.48;;;;;;;;;;6256491;22;20065;-90
2023/01/14 00:23:37;;;;;;;7.18;1.45;;;;;;;;;;6282112;22;20023;-90
2023/01/14 00:26:29;;;;;;;5.95;1.40;;;;;;;;;;6281677;22;20019;-90
2023/01/14 00:28:57;;;;;;;11.85;1.40;;;;;;;;;;6255647;22;20042;-90
2023/01/14 00:31:26;;;;;;;7.25;1.38;;;;;;;;;;6232009;22;20015;-90
2023/01/14 00:33:59;;;;;;;5.10;1.80;;;;;;;;;;6220448;22;20333;-89
2023/01/14 00:36:27;;;;;;;6.50;1.35;;;;;;;;;;6257931;22;20030;-90
2023/01/14 00:38:55;;;;;;;10.30;1.50;;;;;;;;;;6284853;22;20062;-90
2023/01/14 00:41:25;;;;;;;8.48;1.40;;;;;;;;;;6233116;22;20451;-90
2023/01/14 00:43:55;;;;;;;9.73;1.65;;;;;;;;;;6283878;22;20042;-90
2023/01/14 00:46:31;;;;;;;9.50;1.48;;;;;;;;;;6284264;22;20042;-89
2023/01/14 00:49:01;;;;;;;5.80;1.08;;;;;;;;;;6283178;22;20448;-90
2023/01/14 00:51:53;;;;;;;10.20;1.38;;;;;;;;;;6263457;22;20008;-89
2023/01/14 00:54:21;;;;;;;10.20;1.40;;;;;;;;;;6257351;22;20042;-90
2023/01/14 00:56:49;;;;;;;11.13;1.38;;;;;;;;;;6257063;22;20016;-89
2023/01/14 00:59:22;;;;;;;5.40;1.00;;;;;;;;;;6283569;22;20020;-90
2023/01/14 01:01:52;;;;;;;7.18;1.15;;;;;;;;;;6256786;22;20488;-90
2023/01/14 01:04:26;;;;;;;9.15;1.50;;;;;;;;;;6284722;22;20045;-89
2023/01/14 01:06:55;;;;;;;6.90;1.20;;;;;;;;;;6247020;22;20019;-90
2023/01/14 01:09:23;;;;;;;5.78;1.10;;;;;;;;;;6284378;22;20482;-89
2023/01/14 01:11:55;;;;;;;7.15;1.17;;;;;;;;;;6222535;22;20058;-90
2023/01/14 01:14:47;;;;;;;2.67;0.80;;;;;;;;;;6284290;22;20448;-89
2023/01/14 01:17:15;;;;;;;7.00;1.05;;;;;;;;;;6284183;22;20086;-90
2023/01/14 01:19:43;;;;;;;6.95;1.15;;;;;;;;;;6283849;22;20019;-89
2023/01/14 01:22:11;;;;;;;6.68;1.13;;;;;;;;;;6258034;22;20047;-89
2023/01/14 01:24:39;;;;;;;7.07;1.10;;;;;;;;;;6283874;22;20107;-89
2023/01/14 01:27:07;;;;;;;8.18;1.20;;;;;;;;;;6284568;22;20099;-90
2023/01/14 01:29:59;;;;;;;8.05;1.30;;;;;;;;;;6257240;22;20068;-89
2023/01/14 01:32:27;;;;;;;6.05;1.02;;;;;;;;;;6284556;22;20020;-90
2023/01/14 01:34:55;;;;;;;5.55;1.10;;;;;;;;;;6284102;22;20016;-90
2023/01/14 01:37:23;;;;;;;5.90;0.95;;;;;;;;;;6257138;22;20359;-89
2023/01/14 01:40:15;;;;;;;4.63;1.00;;;;;;;;;;6226861;22;20007;-89
2023/01/14 01:42:55;;;;;;;4.53;1.02;;;;;;;;;;6256896;22;20459;-90
2023/01/14 01:48:43;;;;;;;9.35;1.30;;;;;;;;;;6283752;22;20472;-90
2023/01/14 01:51:19;;;;;;;4.85;1.00;;;;;;;;;;6283420;22;20008;-90
2023/01/14 01:53:51;;;;;;;5.00;1.08;;;;;;;;;;6257069;22;20030;-90
2023/01/14 01:56:24;;;;;;;4.55;1.20;;;;;;;;;;6220789;22;20031;-90
2023/01/14 01:59:21;;;;;;;4.82;0.90;;;;;;;;;;6283831;22;20024;-90
2023/01/14 02:01:53;;;;;;;7.80;1.20;;;;;;;;;;6196912;22;20070;-90
2023/01/14 02:04:21;;;;;;;6.22;1.25;;;;;;;;;;6257044;22;20012;-90
2023/01/14 02:06:49;;;;;;;8.00;1.55;;;;;;;;;;6256977;22;20456;-89
2023/01/14 02:09:49;;;;;;;4.88;1.15;;;;;;;;;;6284293;22;20032;-90
2023/01/14 02:12:29;;;;;;;6.05;1.20;;;;;;;;;;6232107;22;20399;-90
2023/01/14 02:15:14;;;;;;;10.52;0.90;;;;;;;;;;6257316;22;20039;-90
2023/01/14 02:18:05;;;;;;;6.10;1.08;;;;;;;;;;6257103;22;20042;-90
2023/01/14 02:20:44;;;;;;;8.70;1.35;;;;;;;;;;6245797;22;20057;-90
2023/01/14 02:23:58;;;;;;;11.85;1.45;;;;;;;;;;6261911;22;20015;-89
2023/01/14 02:26:53;;;;;;;7.57;1.40;;;;;;;;;;6256781;22;20019;-89
2023/01/14 02:30:05;;;;;;;13.80;2.20;;;;;;;;;;6222045;22;20031;-89
2023/01/14 02:33:12;;;;;;;6.70;1.52;;;;;;;;;;6236906;22;20398;-89
2023/01/14 02:35:52;;;;;;;10.02;1.55;;;;;;;;;;6232939;22;20026;-89
2023/01/14 02:38:38;;;;;;;4.80;1.80;;;;;;;;;;6233142;22;20560;-89
2023/01/14 02:45:35;;;;;;;16.15;3.60;;;;;;;;;;6154376;23;20020;-89
2023/01/14 02:48:04;;;;;;;6.35;1.40;;;;;;;;;;6140559;23;20612;-89
2023/01/14 02:50:40;;;;;;;8.35;2.28;;;;;;;;;;6155072;23;20029;-89
2023/01/14 02:53:21;;;;;;;9.02;2.25;;;;;;;;;;6164156;23;20017;-89
2023/01/14 02:55:50;;;;;;;12.80;2.38;;;;;;;;;;6178970;23;20032;-89
2023/01/14 02:58:46;;;;;;;19.00;4.35;;;;;;;;;;6179411;23;20431;-89
2023/01/14 03:01:35;;;;;;;9.55;2.72;;;;;;;;;;6140039;23;20095;-89
2023/01/14 03:04:34;;;;;;;10.52;2.58;;;;;;;;;;6189296;23;20539;-90
2023/01/14 03:07:06;;;;;;;8.32;1.38;;;;;;;;;;6188860;23;20025;-89
2023/01/14 03:09:52;;;;;;;8.02;1.42;;;;;;;;;;6140888;23;20099;-89
2023/01/14 03:13:07;;;;;;;6.18;1.73;;;;;;;;;;6189119;23;20137;-89
2023/01/14 03:15:39;;;;;;;7.80;2.08;;;;;;;;;;6179030;23;20497;-89
2023/01/14 03:18:44;;;;;;;8.45;1.85;;;;;;;;;;6188309;23;20209;-89
2023/01/14 03:21:18;;;;;;;5.68;1.58;;;;;;;;;;6200031;22;20443;-88
2023/01/14 03:24:07;;;;;;;5.47;1.50;;;;;;;;;;6220952;22;20027;-89
2023/01/14 03:27:21;;;;;;;9.57;1.45;;;;;;;;;;6261908;22;20171;-89
2023/01/14 03:29:54;;;;;;;5.30;1.35;;;;;;;;;;6257056;22;20144;-89
2023/01/14 03:32:59;;;;;;;8.50;3.05;;;;;;;;;;6256337;22;20012;-89
2023/01/14 03:35:32;;;;;;;7.40;2.10;;;;;;;;;;6256044;22;20126;-90
2023/01/14 03:38:17;;;;;;;6.15;1.70;;;;;;;;;;6256630;22;20105;-90
2023/01/14 03:40:54;;;;;;;6.80;1.70;;;;;;;;;;6257941;22;20074;-89
2023/01/14 03:43:31;;;;;;;3.75;0.80;;;;;;;;;;6256301;22;20031;-89
2023/01/14 03:46:00;;;;;;;6.32;1.70;;;;;;;;;;6255804;22;20046;-89
2023/01/14 03:48:33;;;;;;;5.28;1.58;;;;;;;;;;6245805;22;20364;-89
2023/01/14 03:51:15;;;;;;;10.27;1.60;;;;;;;;;;6282832;22;20019;-89
2023/01/14 03:54:06;;;;;;;5.05;1.38;;;;;;;;;;6245618;22;20026;-89
2023/01/14 03:56:43;;;;;;;8.30;1.45;;;;;;;;;;6256381;22;20043;-88
2023/01/14 04:00:00;;;;;;;4.43;1.17;;;;;;;;;;6261476;22;20019;-89
2023/01/14 04:02:41;;;;;;;4.43;1.27;;;;;;;;;;6281683;22;20016;-89
2023/01/14 04:05:10;;;;;;;14.23;3.05;;;;;;;;;;6282406;22;20024;-89
2023/01/14 04:07:37;;;;;;;9.50;1.88;;;;;;;;;;6283139;22;20090;-89
2023/01/14 04:10:05;;;;;;;4.90;1.30;;;;;;;;;;6282744;22;20020;-89
2023/01/14 04:12:33;;;;;;;9.85;2.17;;;;;;;;;;6282265;22;20030;-89
2023/01/14 04:15:25;;;;;;;4.68;1.20;;;;;;;;;;6245081;22;20243;-89
2023/01/14 04:18:41;;;;;;;10.55;1.60;;;;;;;;;;6229644;22;20015;-89
2023/01/14 04:21:09;;;;;;;7.63;1.58;;;;;;;;;;6256281;22;20074;-87
2023/01/14 04:23:37;;;;;;;5.43;0.88;;;;;;;;;;6256562;22;20016;-89
2023/01/14 04:26:05;;;;;;;3.47;1.20;;;;;;;;;;6255660;22;20058;-89
2023/01/14 04:28:57;;;;;;;4.57;1.38;;;;;;;;;;6283366;22;20019;-89
2023/01/14 04:31:29;;;;;;;7.72;1.83;;;;;;;;;;6282809;22;20028;-89
2023/01/14 04:34:01;;;;;;;8.68;1.20;;;;;;;;;;6283446;22;20020;-89
2023/01/14 04:36:29;;;;;;;5.32;0.90;;;;;;;;;;6255475;22;20026;-89
2023/01/14 04:38:57;;;;;;;5.15;1.00;;;;;;;;;;6256722;22;20399;-89
2023/01/14 04:44:11;;;;;;;4.78;0.90;;;;;;;;;;6283271;22;20016;-89
2023/01/14 04:46:39;;;;;;;3.15;1.08;;;;;;;;;;6256545;22;20052;-89
2023/01/14 04:49:07;;;;;;;7.60;1.40;;;;;;;;;;6283195;22;20486;-90
2023/01/14 04:51:39;;;;;;;4.80;1.77;;;;;;;;;;6257024;22;20019;-89
2023/01/14 04:54:11;;;;;;;5.50;1.05;;;;;;;;;;6257784;22;20019;-89
2023/01/14 04:56:43;;;;;;;5.00;1.00;;;;;;;;;;6282754;22;20513;-89
2023/01/14 04:59:11;;;;;;;11.85;1.98;;;;;;;;;;6282828;22;20016;-89
2023/01/14 05:01:39;;;;;;;2.67;0.82;;;;;;;;;;6254748;22;20020;-89
2023/01/14 05:04:12;;;;;;;5.80;1.15;;;;;;;;;;6255133;22;20022;-89
2023/01/14 05:06:39;;;;;;;5.78;1.10;;;;;;;;;;6255372;22;20020;-89
2023/01/14 05:09:07;;;;;;;4.30;1.02;;;;;;;;;;6256312;22;20019;-89
2023/01/14 05:11:35;;;;;;;5.07;1.42;;;;;;;;;;6282789;22;20019;-89
2023/01/14 05:14:03;;;;;;;7.75;1.80;;;;;;;;;;6282724;22;20094;-89
2023/01/14 05:16:31;;;;;;;10.02;2.03;;;;;;;;;;6255979;22;20016;-89
2023/01/14 05:18:59;;;;;;;7.30;2.17;;;;;;;;;;6284203;22;20020;-89
2023/01/14 05:21:27;;;;;;;9.23;2.17;;;;;;;;;;6257279;22;20466;-89
2023/01/14 05:23:55;;;;;;;5.45;1.73;;;;;;;;;;6257428;22;20011;-89
2023/01/14 05:26:23;;;;;;;9.77;2.78;;;;;;;;;;6257201;22;20024;-89
2023/01/14 05:29:15;;;;;;;8.98;2.28;;;;;;;;;;6284441;22;20042;-89
2023/01/14 05:31:43;;;;;;;13.65;2.90;;;;;;;;;;6284304;22;20026;-90
2023/01/14 05:34:11;;;;;;;10.68;2.45;;;;;;;;;;6256911;22;20043;-89
2023/01/14 05:36:43;;;;;;;12.73;2.60;;;;;;;;;;6223235;22;20047;-88
2023/01/14 05:39:11;;;;;;;12.93;3.22;;;;;;;;;;6247442;22;20027;-89
2023/01/14 05:45:37;;;;;;;20.20;3.70;;;;;;;;;;6284129;22;20019;-89
2023/01/14 05:47:13;;;;;;;15.93;4.20;;;;;;;;;;6283642;22;20030;-89
2023/01/14 05:50:12;;;;;;;12.00;4.03;;;;;;;;;;6284676;22;20019;-89
2023/01/14 05:52:39;;;;;;;12.25;4.55;;;;;;;;;;6284297;22;20035;-89
2023/01/14 05:55:07;;;;;;;10.10;3.63;;;;;;;;;;6257905;22;20093;-89
2023/01/14 05:57:35;;;;;;;13.45;4.45;;;;;;;;;;6283463;22;20015;-89
2023/01/14 06:06:28;;;;;;;14.68;4.05;;;;;;;;;;6257448;22;20019;-89
2023/01/14 06:09:03;;;;;;;13.32;4.68;;;;;;;;;;6284342;22;20019;-89
2023/01/14 06:11:33;;;;;;;13.93;3.97;;;;;;;;;;6257138;22;20026;-89
2023/01/14 06:14:02;;;;;;;16.65;4.32;;;;;;;;;;6283191;22;20012;-89
2023/01/14 06:16:41;;;;;;;14.57;4.43;;;;;;;;;;6257696;22;20448;-89
2023/01/14 06:19:33;;;;;;;16.85;4.45;;;;;;;;;;6284246;22;20018;-89
2023/01/14 06:22:01;;;;;;;13.50;4.43;;;;;;;;;;6256181;22;20026;-89
2023/01/14 06:24:55;;;;;;;16.92;4.32;;;;;;;;;;6283734;22;20011;-89
2023/01/14 06:27:25;;;;;;;11.20;3.63;;;;;;;;;;6257227;22;20019;-89
2023/01/14 06:30:20;;;;;;;15.13;3.83;;;;;;;;;;6283907;22;20026;-89
2023/01/14 06:32:49;;;;;;;17.30;4.20;;;;;;;;;;6283851;22;20094;-89
2023/01/14 06:35:17;;;;;;;12.85;3.38;;;;;;;;;;6284036;22;20012;-89
2023/01/14 06:37:46;;;;;;;15.02;3.90;;;;;;;;;;6284052;22;20356;-89
2023/01/14 06:40:19;;;;;;;8.18;3.20;;;;;;;;;;6283811;22;20511;-89
2023/01/14 06:42:47;;;;;;;15.50;3.78;;;;;;;;;;6283527;22;20015;-89
2023/01/14 06:45:15;;;;;;;15.88;3.95;;;;;;;;;;6256777;22;20043;-89
2023/01/14 06:47:47;;;;;;;11.15;3.78;;;;;;;;;;6257696;22;20038;-89
2023/01/14 06:50:17;;;;;;;16.85;3.85;;;;;;;;;;6283730;22;20024;-89
2023/01/14 06:52:45;;;;;;;12.32;3.00;;;;;;;;;;6283930;22;20456;-89
2023/01/14 06:55:17;;;;;;;10.70;2.60;;;;;;;;;;6283242;22;20026;-89
2023/01/14 06:57:45;;;;;;;8.65;2.70;;;;;;;;;;6283418;22;20098;-89
2023/01/14 07:00:14;;;;;;;13.48;2.58;;;;;;;;;;6256652;22;20023;-89
2023/01/14 07:02:41;;;;;;;9.98;2.08;;;;;;;;;;6255899;22;20087;-89
2023/01/14 07:05:14;;;;;;;14.52;2.55;;;;;;;;;;6283718;22;20069;-89
2023/01/14 07:07:48;;;;;;;8.13;1.77;;;;;;;;;;6257720;22;20043;-89
2023/01/14 07:10:16;;;;;;;14.38;2.15;;;;;;;;;;6221018;22;20019;-89
2023/01/14 07:12:50;;;;;;;9.27;2.20;;;;;;;;;;6257041;22;20091;-89
2023/01/14 07:15:19;;;;;;;10.30;1.95;;;;;;;;;;6256225;22;20039;-89
2023/01/14 07:17:53;;;;;;;14.15;2.10;;;;;;;;;;6245827;22;20027;-89
2023/01/14 07:20:21;;;;;;;13.27;2.50;;;;;;;;;;6283256;22;20016;-89
2023/01/14 07:22:49;;;;;;;14.43;2.42;;;;;;;;;;6282953;22;20119;-89
2023/01/14 07:25:41;;;;;;;10.70;2.00;;;;;;;;;;6283109;22;20012;-88
2023/01/14 07:28:09;;;;;;;10.73;2.10;;;;;;;;;;6256554;22;20020;-89
2023/01/14 07:31:05;;;;;;;12.68;2.55;;;;;;;;;;6262165;22;20072;-90
2023/01/14 07:33:33;;;;;;;10.55;1.90;;;;;;;;;;6254717;22;20011;-89
2023/01/14 07:36:05;;;;;;;14.02;2.20;;;;;;;;;;6282174;22;20444;-89
2023/01/14 07:38:33;;;;;;;7.03;1.90;;;;;;;;;;6283668;22;20060;-89
2023/01/14 07:41:01;;;;;;;13.02;2.40;;;;;;;;;;6282865;22;20019;-89
2023/01/14 07:44:23;;;;;;;15.65;3.47;;;;;;;;;;6301884;22;20027;-89
2023/01/14 07:47:16;;;;;;;19.75;2.45;;;;;;;;;;6297315;22;20030;-89
2023/01/14 07:49:49;;;;;;;11.15;2.40;;;;;;;;;;6269384;22;20023;-89
2023/01/14 07:52:17;;;;;;;14.10;2.80;;;;;;;;;;6260232;22;20436;-89
2023/01/14 07:57:37;;;;;;;18.25;2.85;;;;;;;;;;6298099;22;20020;-89
2023/01/14 08:00:06;;;;;;;16.73;2.95;;;;;;;;;;6297095;22;20016;-89
2023/01/14 08:02:39;;;;;;;21.30;4.15;;;;;;;;;;6232888;22;20020;-89
2023/01/14 08:05:13;;;;;;;15.35;4.00;;;;;;;;;;6275720;22;20472;-89
2023/01/14 08:08:07;;;;;;;24.80;4.07;;;;;;;;;;6270041;22;20069;-89
2023/01/14 08:10:35;;;;;;;23.40;5.13;;;;;;;;;;6258995;22;20043;-89
2023/01/14 08:13:03;;;;;;;14.63;3.97;;;;;;;;;;6284106;22;20023;-89
2023/01/14 08:15:55;;;;;;;20.17;4.22;;;;;;;;;;6263580;22;20022;-89
2023/01/14 08:18:48;;;;;;;22.88;5.47;;;;;;;;;;6262208;22;20313;-89
2023/01/14 08:21:21;;;;;;;13.57;3.17;;;;;;;;;;6258408;22;20455;-89
2023/01/14 08:23:54;;;;;;;12.00;3.10;;;;;;;;;;6256786;22;20062;-88
2023/01/14 08:29:14;;;;;;;12.10;2.72;;;;;;;;;;6246147;22;20042;-89
2023/01/14 08:31:43;;;;;;;12.98;2.83;;;;;;;;;;6286305;22;20355;-89
2023/01/14 08:34:35;;;;;;;13.98;2.13;;;;;;;;;;6287726;22;20008;-89
2023/01/14 08:37:07;;;;;;;15.82;3.17;;;;;;;;;;6262519;22;20321;-90
2023/01/14 08:39:41;;;;;;;11.57;2.97;;;;;;;;;;6288423;22;20509;-89
2023/01/14 08:42:09;;;;;;;8.88;2.63;;;;;;;;;;6252127;22;20055;-89
2023/01/14 08:44:37;;;;;;;13.88;3.30;;;;;;;;;;6291181;22;20080;-89
2023/01/14 08:47:05;;;;;;;14.85;3.75;;;;;;;;;;6259861;22;20046;-89
2023/01/14 08:49:37;;;;;;;20.35;3.60;;;;;;;;;;6263863;22;20024;-89
2023/01/14 08:52:05;;;;;;;12.75;2.95;;;;;;;;;;6263308;22;20043;-89
2023/01/14 08:55:04;;;;;;;18.45;3.17;;;;;;;;;;6290386;22;20022;-89
2023/01/14 08:57:31;;;;;;;21.98;3.55;;;;;;;;;;6228210;22;20344;-89
2023/01/14 09:00:05;;;;;;;14.45;3.08;;;;;;;;;;6292433;22;20051;-90
2023/01/14 09:02:33;;;;;;;15.77;3.25;;;;;;;;;;6232678;22;20035;-89
2023/01/14 09:05:01;;;;;;;15.93;3.47;;;;;;;;;;6260119;22;20022;-89
2023/01/14 09:19:17;;;;;;;16.23;3.58;;;;;;;;;;6189422;23;20020;-90
2023/01/14 09:21:45;;;;;;;21.20;4.93;;;;;;;;;;6153876;23;20365;-90
2023/01/14 09:24:17;;;;;;;20.55;4.60;;;;;;;;;;6189391;23;20024;-90
2023/01/14 09:26:45;;;;;;;16.48;5.00;;;;;;;;;;6130621;23;20028;-90
2023/01/14 09:29:13;;;;;;;15.70;4.20;;;;;;;;;;6165186;23;20338;-90
2023/01/14 09:31:41;;;;;;;21.77;4.05;;;;;;;;;;6154750;23;20028;-90
2023/01/14 09:34:13;;;;;;;16.98;3.70;;;;;;;;;;6154608;23;20017;-90
2023/01/14 09:36:41;;;;;;;19.45;4.65;;;;;;;;;;6128597;23;20472;-90
2023/01/14 09:39:13;;;;;;;12.43;3.55;;;;;;;;;;6165041;23;20028;-90
2023/01/14 09:41:55;;;;;;;13.80;4.15;;;;;;;;;;6188413;23;20072;-90
2023/01/14 09:44:24;;;;;;;21.45;4.47;;;;;;;;;;6187897;23;20021;-89
2023/01/14 09:46:53;;;;;;;18.33;4.20;;;;;;;;;;6128084;23;20049;-89
2023/01/14 09:49:26;;;;;;;19.25;4.35;;;;;;;;;;6163653;23;20060;-89
2023/01/14 09:52:13;;;;;;;15.32;3.60;;;;;;;;;;6188531;23;20674;-90
2023/01/14 09:54:43;;;;;;;20.77;4.35;;;;;;;;;;6163996;23;20013;-89
2023/01/14 09:57:24;;;;;;;21.15;4.60;;;;;;;;;;6242958;22;20078;-89
2023/01/14 10:00:15;;;;;;;29.20;5.53;;;;;;;;;;6244153;22;20394;-89
2023/01/14 10:03:09;;;;;;;31.05;5.68;;;;;;;;;;6217895;22;20020;-88
2023/01/14 10:05:53;;;;;;;19.77;5.28;;;;;;;;;;6194918;22;20505;-88
2023/01/14 10:08:30;;;;;;;19.63;4.25;;;;;;;;;;6255656;22;20051;-88
2023/01/14 10:11:05;;;;;;;29.00;7.05;;;;;;;;;;6283076;22;20024;-88
2023/01/14 10:13:38;;;;;;;19.42;5.13;;;;;;;;;;6255633;22;20022;-88
2023/01/14 10:16:16;;;;;;;26.15;5.22;;;;;;;;;;6231924;22;20020;-88
2023/01/14 10:19:37;;;;;;;26.05;5.82;;;;;;;;;;6282245;22;20019;-88
2023/01/14 10:22:31;;;;;;;16.77;4.25;;;;;;;;;;6282390;22;20016;-88
2023/01/14 10:24:59;;;;;;;23.80;4.35;;;;;;;;;;6238887;22;20019;-88
2023/01/14 10:27:31;;;;;;;23.30;4.07;;;;;;;;;;6276694;22;20016;-89
2023/01/14 10:30:21;;;;;;;15.55;5.43;;;;;;;;;;6282054;22;20039;-89
2023/01/14 10:32:51;;;;;;;22.60;5.35;;;;;;;;;;6281091;22;20069;-89
2023/01/14 10:35:32;;;;;;;16.70;4.80;;;;;;;;;;6254113;22;20015;-89
2023/01/14 10:38:26;;;;;;;17.20;4.13;;;;;;;;;;6244268;22;20038;-90
2023/01/14 10:41:06;;;;;;;17.15;3.65;;;;;;;;;;6282002;22;20069;-89
2023/01/14 10:43:51;;;;;;;15.32;4.20;;;;;;;;;;6243946;22;20016;-88
2023/01/14 10:46:45;;;;;;;20.17;4.20;;;;;;;;;;6281500;22;20098;-89
2023/01/14 10:49:28;;;;;;;14.80;4.38;;;;;;;;;;6243435;22;20073;-89
2023/01/14 10:51:57;;;;;;;14.77;4.03;;;;;;;;;;6219141;22;20015;-89
2023/01/14 10:54:29;;;;;;;15.05;4.05;;;;;;;;;;6282265;22;20011;-89
2023/01/14 10:57:15;;;;;;;12.30;3.10;;;;;;;;;;6254414;22;20467;-89
2023/01/14 10:59:51;;;;;;;19.20;3.75;;;;;;;;;;6281642;22;20054;-90
2023/01/14 11:02:22;;;;;;;13.07;4.00;;;;;;;;;;6281115;22;20043;-89
2023/01/14 11:05:32;;;;;;;16.65;3.10;;;;;;;;;;6254864;22;20018;-89
2023/01/14 11:08:30;;;;;;;18.17;3.67;;;;;;;;;;6254520;22;20015;-90
2023/01/14 11:11:24;;;;;;;11.63;3.08;;;;;;;;;;6284256;22;20040;-86
2023/01/14 11:13:59;;;;;;;17.90;3.10;;;;;;;;;;6282760;22;20014;-90
2023/01/14 11:16:29;;;;;;;18.00;3.53;;;;;;;;;;6234429;22;20019;-92
2023/01/14 11:19:15;;;;;;;21.58;3.25;;;;;;;;;;6221807;22;20023;-92
2023/01/14 11:21:46;;;;;;;22.10;3.03;;;;;;;;;;6198341;22;20061;-92
2023/01/14 11:24:44;;;;;;;18.27;4.15;;;;;;;;;;6249808;22;20031;-92
2023/01/14 11:27:37;;;;;;;19.35;3.72;;;;;;;;;;6264633;22;20019;-89
2023/01/14 11:30:09;;;;;;;12.98;2.83;;;;;;;;;;6281603;22;20012;-88
2023/01/14 11:32:59;;;;;;;14.82;2.65;;;;;;;;;;6253524;22;20062;-88
2023/01/14 11:35:33;;;;;;;14.52;2.72;;;;;;;;;;6280056;22;20015;-89
2023/01/14 11:38:03;;;;;;;15.35;2.63;;;;;;;;;;6279767;22;20043;-88
2023/01/14 11:43:59;;;;;;;9.93;2.88;;;;;;;;;;6281126;22;20012;-89
2023/01/14 11:46:28;;;;;;;11.70;2.42;;;;;;;;;;6278848;22;20016;-89
2023/01/14 11:49:15;;;;;;;10.32;2.00;;;;;;;;;;6254399;22;20047;-89
2023/01/14 11:52:15;;;;;;;7.93;2.33;;;;;;;;;;6281405;22;20020;-89
2023/01/14 11:54:45;;;;;;;13.73;3.10;;;;;;;;;;6149533;23;20020;-89
2023/01/14 11:57:17;;;;;;;12.27;2.40;;;;;;;;;;6185987;23;20487;-90
2023/01/14 11:59:45;;;;;;;18.25;3.42;;;;;;;;;;6151883;23;20021;-89
2023/01/14 12:02:32;;;;;;;8.60;2.65;;;;;;;;;;6186045;23;20020;-88
2023/01/14 12:05:21;;;;;;;14.95;2.25;;;;;;;;;;6186029;23;20028;-89
2023/01/14 12:07:52;;;;;;;10.80;2.40;;;;;;;;;;6161931;23;20028;-90
2023/01/14 12:10:30;;;;;;;13.30;2.60;;;;;;;;;;6162084;23;20096;-89
2023/01/14 12:19:32;;;;;;;11.05;2.45;;;;;;;;;;6185782;23;20025;-89
2023/01/14 12:22:17;;;;;;;8.98;2.55;;;;;;;;;;6162834;23;20031;-89
2023/01/14 12:25:03;;;;;;;14.50;2.15;;;;;;;;;;6186220;23;20072;-89
2023/01/14 12:27:45;;;;;;;13.77;2.78;;;;;;;;;;6163478;23;20029;-89
2023/01/14 12:30:25;;;;;;;14.80;1.88;;;;;;;;;;6190050;23;20326;-89
2023/01/14 12:33:10;;;;;;;15.88;2.17;;;;;;;;;;6244521;22;20837;-89
2023/01/14 12:35:46;;;;;;;15.02;2.08;;;;;;;;;;6284181;22;20094;-89
2023/01/14 12:47:27;;;;;;;14.02;2.30;;;;;;;;;;6188953;23;20488;-89
2023/01/14 12:50:12;;;;;;;11.27;2.20;;;;;;;;;;6167416;23;20024;-89
2023/01/14 12:52:53;;;;;;;10.43;1.92;;;;;;;;;;6189652;23;20029;-90
2023/01/14 12:55:31;;;;;;;8.05;2.38;;;;;;;;;;6189078;23;20021;-88
2023/01/14 12:58:14;;;;;;;7.95;2.20;;;;;;;;;;6181415;23;20099;-90
2023/01/14 13:00:41;;;;;;;8.18;2.13;;;;;;;;;;6189175;23;20025;-89
2023/01/14 13:03:24;;;;;;;5.63;1.83;;;;;;;;;;6187434;23;20025;-86
2023/01/14 13:05:53;;;;;;;9.77;2.13;;;;;;;;;;6187220;23;20055;-89
2023/01/14 13:08:27;;;;;;;10.70;2.13;;;;;;;;;;6151102;23;20031;-88
2023/01/14 13:11:11;;;;;;;11.68;1.98;;;;;;;;;;6160709;23;20025;-88
2023/01/14 13:13:42;;;;;;;9.40;1.65;;;;;;;;;;6186771;23;20035;-88
2023/01/14 13:16:37;;;;;;;12.90;1.70;;;;;;;;;;6175949;23;20032;-88
2023/01/14 13:19:31;;;;;;;7.78;1.70;;;;;;;;;;6243738;22;20020;-88
2023/01/14 13:22:09;;;;;;;11.65;1.67;;;;;;;;;;6257008;22;20020;-88
2023/01/14 13:24:45;;;;;;;11.05;1.50;;;;;;;;;;6245168;22;20390;-89
2023/01/14 13:27:30;;;;;;;9.63;1.92;;;;;;;;;;6283827;22;20020;-88
2023/01/14 13:30:17;;;;;;;8.15;1.55;;;;;;;;;;6283220;22;20015;-89
2023/01/14 13:33:00;;;;;;;12.65;2.05;;;;;;;;;;6256109;22;20023;-88
2023/01/14 13:35:29;;;;;;;14.05;1.70;;;;;;;;;;6256484;22;20008;-89
2023/01/14 13:38:22;;;;;;;13.20;1.80;;;;;;;;;;6283258;22;20019;-89
2023/01/14 13:40:52;;;;;;;6.78;2.30;;;;;;;;;;6260628;22;20343;-89
2023/01/14 13:43:49;;;;;;;9.32;1.88;;;;;;;;;;6261686;22;20016;-88
2023/01/14 13:46:46;;;;;;;8.00;1.50;;;;;;;;;;6283327;22;20396;-89
2023/01/14 13:49:25;;;;;;;6.60;2.22;;;;;;;;;;6271128;22;20030;-89
2023/01/14 13:51:59;;;;;;;10.77;1.85;;;;;;;;;;6283126;22;20026;-89
2023/01/14 13:57:36;;;;;;;9.43;1.42;;;;;;;;;;6245620;22;20073;-89
2023/01/14 14:00:18;;;;;;;8.25;2.15;;;;;;;;;;6257654;22;20443;-89
2023/01/14 14:03:33;;;;;;;8.35;1.58;;;;;;;;;;6281662;22;20102;-89
2023/01/14 14:06:40;;;;;;;10.70;1.40;;;;;;;;;;6255241;22;20019;-89
2023/01/14 14:09:19;;;;;;;6.78;1.40;;;;;;;;;;6282935;22;20028;-89
2023/01/14 14:11:56;;;;;;;7.93;1.45;;;;;;;;;;6255240;22;20015;-89
2023/01/14 14:14:33;;;;;;;4.95;1.27;;;;;;;;;;6256392;22;20277;-89
2023/01/14 14:17:22;;;;;;;7.13;1.70;;;;;;;;;;6255658;22;20069;-89
2023/01/14 14:19:54;;;;;;;7.60;1.42;;;;;;;;;;6255916;22;20350;-89
2023/01/14 14:22:48;;;;;;;6.80;1.80;;;;;;;;;;6244332;22;20398;-90
2023/01/14 14:25:29;;;;;;;2.85;1.10;;;;;;;;;;6281844;22;20111;-90
2023/01/14 14:27:57;;;;;;;10.88;1.40;;;;;;;;;;6255269;22;20019;-90
2023/01/14 14:30:58;;;;;;;7.82;1.70;;;;;;;;;;6280683;22;20475;-90
2023/01/14 14:33:38;;;;;;;6.30;1.45;;;;;;;;;;6212814;22;20026;-90
2023/01/14 14:36:17;;;;;;;5.32;1.58;;;;;;;;;;6219486;22;20016;-90
2023/01/14 14:38:48;;;;;;;7.95;1.30;;;;;;;;;;6256039;22;20012;-90
2023/01/14 14:41:17;;;;;;;3.70;1.50;;;;;;;;;;6254914;22;20027;-90
2023/01/14 14:44:19;;;;;;;7.20;2.30;;;;;;;;;;6244212;22;20023;-90
2023/01/14 14:46:47;;;;;;;7.75;2.30;;;;;;;;;;6244008;22;20043;-89
2023/01/14 14:49:41;;;;;;;10.52;2.13;;;;;;;;;;6260627;22;20018;-90
2023/01/14 14:52:18;;;;;;;5.50;1.98;;;;;;;;;;6281885;22;20356;-90
2023/01/14 14:54:49;;;;;;;8.52;1.90;;;;;;;;;;6255845;22;20448;-90
2023/01/14 14:57:32;;;;;;;12.05;1.95;;;;;;;;;;6255655;22;20022;-90
2023/01/14 15:00:21;;;;;;;9.57;2.47;;;;;;;;;;6281362;22;20015;-90
2023/01/14 15:03:21;;;;;;;9.35;1.73;;;;;;;;;;6244581;22;20028;-89
2023/01/14 15:05:50;;;;;;;9.05;2.20;;;;;;;;;;6245100;22;20054;-90
2023/01/14 15:08:28;;;;;;;7.43;2.20;;;;;;;;;;6281814;22;20022;-90
2023/01/14 15:10:57;;;;;;;6.15;2.08;;;;;;;;;;6281949;22;20451;-90
2023/01/14 15:13:27;;;;;;;7.28;1.65;;;;;;;;;;6230934;22;20016;-89
2023/01/14 15:16:07;;;;;;;5.68;1.65;;;;;;;;;;6282252;22;20038;-90
2023/01/14 15:19:00;;;;;;;8.45;2.42;;;;;;;;;;6253481;22;20012;-88
2023/01/14 15:21:31;;;;;;;3.83;1.58;;;;;;;;;;6256425;22;20016;-88
2023/01/14 15:24:03;;;;;;;8.98;1.80;;;;;;;;;;6219318;22;20658;-89
2023/01/14 15:26:34;;;;;;;9.40;1.92;;;;;;;;;;6254058;22;20090;-88
2023/01/14 15:29:02;;;;;;;6.47;1.67;;;;;;;;;;6254956;22;20019;-88
2023/01/14 15:31:36;;;;;;;5.70;1.55;;;;;;;;;;6279813;22;20333;-89
2023/01/14 15:34:14;;;;;;;7.22;2.28;;;;;;;;;;6280110;22;20598;-89
2023/01/14 15:37:00;;;;;;;8.20;2.22;;;;;;;;;;6280977;22;20016;-89
2023/01/14 15:40:00;;;;;;;7.10;3.15;;;;;;;;;;6280914;22;20456;-89
2023/01/14 15:42:27;;;;;;;6.32;1.80;;;;;;;;;;6229600;22;20042;-89
2023/01/14 15:45:00;;;;;;;8.95;3.28;;;;;;;;;;6281913;22;20086;-89
2023/01/14 15:47:58;;;;;;;5.93;2.08;;;;;;;;;;6244053;22;20023;-89
2023/01/14 15:50:41;;;;;;;9.40;2.20;;;;;;;;;;6254795;22;20029;-90
2023/01/14 15:53:27;;;;;;;4.57;1.85;;;;;;;;;;6220212;22;20039;-89
2023/01/14 15:56:11;;;;;;;6.07;2.03;;;;;;;;;;6254751;22;20011;-89
2023/01/14 15:58:54;;;;;;;4.47;2.08;;;;;;;;;;6243989;22;20066;-90
2023/01/14 16:01:25;;;;;;;3.53;1.75;;;;;;;;;;6243769;22;20019;-89
2023/01/14 16:04:00;;;;;;;7.15;2.17;;;;;;;;;;6244532;22;20027;-89
2023/01/14 16:06:29;;;;;;;6.85;1.63;;;;;;;;;;6281559;22;20519;-89
2023/01/14 16:08:58;;;;;;;5.43;1.85;;;;;;;;;;6254180;22;20046;-89
2023/01/14 16:11:55;;;;;;;5.18;1.88;;;;;;;;;;6262287;22;20012;-88
2023/01/14 16:14:36;;;;;;;3.40;1.50;;;;;;;;;;6193735;22;20027;-88
2023/01/14 16:17:04;;;;;;;7.63;1.77;;;;;;;;;;6254088;22;20031;-89
2023/01/14 16:19:34;;;;;;;3.15;1.50;;;;;;;;;;6243784;22;20348;-89
2023/01/14 16:22:03;;;;;;;9.18;2.80;;;;;;;;;;6254904;22;20023;-89
2023/01/14 16:24:31;;;;;;;3.45;1.75;;;;;;;;;;6219136;22;20046;-89
2023/01/14 16:27:01;;;;;;;5.30;1.60;;;;;;;;;;6254496;22;20023;-89
2023/01/14 16:29:29;;;;;;;3.53;1.50;;;;;;;;;;6254765;22;20020;-89
2023/01/14 16:32:45;;;;;;;3.85;1.35;;;;;;;;;;6281061;22;20008;-88
2023/01/14 16:35:13;;;;;;;3.30;1.52;;;;;;;;;;6255487;22;20102;-89
2023/01/14 16:38:05;;;;;;;4.38;1.40;;;;;;;;;;6259847;22;20027;-89